sensor_id;sensor_type;location;lat;lon;timestamp;temperature;humidity
8253;DHT22;61313;48.396;10.008;2022-11-20T00:00:45;7.60;99.90
8253;DHT22;61313;48.396;10.008;2022-11-20T00:03:11;7.60;99.90
8253;DHT22;61313;48.396;10.008;2022-11-20T00:05:36;7.50;99.90
8253;DHT22;61313;48.396;10.008;2022-11-20T00:08:02;7.50;99.90
8253;DHT22;61313;48.396;10.008;2022-11-20T00:10:28;7.50;99.90
8253;DHT22;61313;48.396;10.008;2022-11-20T00:12:53;7.60;99.90
8253;DHT22;61313;48.396;10.008;2022-11-20T00:15:19;7.60;1.00
8253;DHT22;61313;48.396;10.008;2022-11-20T00:17:45;7.60;22.20
8253;DHT22;61313;48.396;10.008;2022-11-20T00:20:11;7.50;99.90
8253;DHT22;61313;48.396;10.008;2022-11-20T00:22:36;7.50;1.00
8253;DHT22;61313;48.396;10.008;2022-11-20T00:25:02;7.50;26.10
8253;DHT22;61313;48.396;10.008;2022-11-20T00:27:28;7.40;91.30
8253;DHT22;61313;48.396;10.008;2022-11-20T00:29:54;7.40;52.50
8253;DHT22;61313;48.396;10.008;2022-11-20T00:32:19;7.40;69.60
8253;DHT22;61313;48.396;10.008;2022-11-20T00:34:45;7.50;1.00
8253;DHT22;61313;48.396;10.008;2022-11-20T00:37:11;7.50;1.00
8253;DHT22;61313;48.396;10.008;2022-11-20T00:39:36;7.50;1.00
8253;DHT22;61313;48.396;10.008;2022-11-20T00:42:02;7.50;1.00
8253;DHT22;61313;48.396;10.008;2022-11-20T00:44:28;7.40;1.00
8253;DHT22;61313;48.396;10.008;2022-11-20T00:46:53;7.50;1.00
8253;DHT22;61313;48.396;10.008;2022-11-20T00:49:19;7.40;1.00
8253;DHT22;61313;48.396;10.008;2022-11-20T00:51:45;7.30;1.00
8253;DHT22;61313;48.396;10.008;2022-11-20T00:54:10;7.40;1.00
8253;DHT22;61313;48.396;10.008;2022-11-20T00:56:36;7.30;1.00
8253;DHT22;61313;48.396;10.008;2022-11-20T00:59:02;7.30;1.00
8253;DHT22;61313;48.396;10.008;2022-11-20T01:01:28;7.30;1.00
8253;DHT22;61313;48.396;10.008;2022-11-20T01:03:57;7.20;1.00
8253;DHT22;61313;48.396;10.008;2022-11-20T01:06:28;7.20;1.00
8253;DHT22;61313;48.396;10.008;2022-11-20T01:09:00;7.10;1.00
8253;DHT22;61313;48.396;10.008;2022-11-20T01:11:28;7.10;1.00
8253;DHT22;61313;48.396;10.008;2022-11-20T01:13:55;7.20;1.00
8253;DHT22;61313;48.396;10.008;2022-11-20T01:16:25;7.10;1.00
8253;DHT22;61313;48.396;10.008;2022-11-20T01:18:52;7.10;1.00
8253;DHT22;61313;48.396;10.008;2022-11-20T01:23:53;7.00;1.00
8253;DHT22;61313;48.396;10.008;2022-11-20T01:26:24;6.90;1.00
8253;DHT22;61313;48.396;10.008;2022-11-20T01:28:51;6.80;99.90
8253;DHT22;61313;48.396;10.008;2022-11-20T01:31:43;6.80;99.90
8253;DHT22;61313;48.396;10.008;2022-11-20T01:34:17;6.80;99.90
8253;DHT22;61313;48.396;10.008;2022-11-20T01:36:43;6.80;99.90
8253;DHT22;61313;48.396;10.008;2022-11-20T01:39:18;6.80;99.90
8253;DHT22;61313;48.396;10.008;2022-11-20T01:41:45;6.70;99.90
8253;DHT22;61313;48.396;10.008;2022-11-20T01:47:16;6.80;99.90
8253;DHT22;61313;48.396;10.008;2022-11-20T01:49:49;6.70;99.90
8253;DHT22;61313;48.396;10.008;2022-11-20T01:52:40;6.60;99.90
8253;DHT22;61313;48.396;10.008;2022-11-20T01:57:34;6.70;99.90
8253;DHT22;61313;48.396;10.008;2022-11-20T02:00:07;6.60;99.90
8253;DHT22;61313;48.396;10.008;2022-11-20T02:02:33;6.60;99.90
8253;DHT22;61313;48.396;10.008;2022-11-20T02:05:09;6.50;99.90
8253;DHT22;61313;48.396;10.008;2022-11-20T02:07:37;6.60;99.90
8253;DHT22;61313;48.396;10.008;2022-11-20T02:10:03;6.50;99.90
8253;DHT22;61313;48.396;10.008;2022-11-20T02:12:29;6.50;1.00
8253;DHT22;61313;48.396;10.008;2022-11-20T02:15:13;6.50;99.90
8253;DHT22;61313;48.396;10.008;2022-11-20T02:17:39;6.40;99.90
8253;DHT22;61313;48.396;10.008;2022-11-20T02:20:06;6.40;1.00
8253;DHT22;61313;48.396;10.008;2022-11-20T02:22:38;6.30;1.00
8253;DHT22;61313;48.396;10.008;2022-11-20T02:25:07;6.30;1.00
8253;DHT22;61313;48.396;10.008;2022-11-20T02:27:35;6.40;1.00
8253;DHT22;61313;48.396;10.008;2022-11-20T02:30:03;6.40;99.90
8253;DHT22;61313;48.396;10.008;2022-11-20T02:32:34;6.50;99.90
8253;DHT22;61313;48.396;10.008;2022-11-20T02:37:48;6.50;99.90
8253;DHT22;61313;48.396;10.008;2022-11-20T02:40:15;6.50;99.90
8253;DHT22;61313;48.396;10.008;2022-11-20T02:42:40;6.50;99.90
8253;DHT22;61313;48.396;10.008;2022-11-20T02:45:07;6.50;93.50
8253;DHT22;61313;48.396;10.008;2022-11-20T02:47:33;6.50;20.80
8253;DHT22;61313;48.396;10.008;2022-11-20T02:49:59;6.50;43.70
8253;DHT22;61313;48.396;10.008;2022-11-20T02:52:25;6.50;6.30
8253;DHT22;61313;48.396;10.008;2022-11-20T02:54:51;6.40;48.70
8253;DHT22;61313;48.396;10.008;2022-11-20T02:57:17;6.40;2.50
8253;DHT22;61313;48.396;10.008;2022-11-20T02:59:42;6.40;34.20
8253;DHT22;61313;48.396;10.008;2022-11-20T03:02:08;6.20;99.90
8253;DHT22;61313;48.396;10.008;2022-11-20T03:04:34;6.20;99.90
8253;DHT22;61313;48.396;10.008;2022-11-20T03:07:00;6.20;99.90
8253;DHT22;61313;48.396;10.008;2022-11-20T03:09:26;6.20;1.00
8253;DHT22;61313;48.396;10.008;2022-11-20T03:11:51;6.20;99.90
8253;DHT22;61313;48.396;10.008;2022-11-20T03:14:17;6.10;99.90
8253;DHT22;61313;48.396;10.008;2022-11-20T03:16:43;6.20;1.00
8253;DHT22;61313;48.396;10.008;2022-11-20T03:19:08;6.10;99.90
8253;DHT22;61313;48.396;10.008;2022-11-20T03:21:35;6.10;1.00
8253;DHT22;61313;48.396;10.008;2022-11-20T03:24:01;6.20;1.00
8253;DHT22;61313;48.396;10.008;2022-11-20T03:26:27;6.10;99.90
8253;DHT22;61313;48.396;10.008;2022-11-20T03:28:56;6.10;99.90
8253;DHT22;61313;48.396;10.008;2022-11-20T03:31:34;6.10;99.90
8253;DHT22;61313;48.396;10.008;2022-11-20T03:34:01;6.10;1.00
8253;DHT22;61313;48.396;10.008;2022-11-20T03:36:28;6.10;1.00
8253;DHT22;61313;48.396;10.008;2022-11-20T03:38:55;6.10;99.90
8253;DHT22;61313;48.396;10.008;2022-11-20T03:41:24;6.00;99.90
8253;DHT22;61313;48.396;10.008;2022-11-20T03:44:02;6.00;1.00
8253;DHT22;61313;48.396;10.008;2022-11-20T03:46:28;6.00;1.00
8253;DHT22;61313;48.396;10.008;2022-11-20T03:48:54;6.00;99.90
8253;DHT22;61313;48.396;10.008;2022-11-20T03:51:25;6.10;99.90
8253;DHT22;61313;48.396;10.008;2022-11-20T03:53:53;6.10;99.90
8253;DHT22;61313;48.396;10.008;2022-11-20T03:56:23;6.20;99.90
8253;DHT22;61313;48.396;10.008;2022-11-20T03:58:49;6.20;99.90
8253;DHT22;61313;48.396;10.008;2022-11-20T04:01:21;6.10;99.90
8253;DHT22;61313;48.396;10.008;2022-11-20T04:03:47;6.20;99.90
8253;DHT22;61313;48.396;10.008;2022-11-20T04:06:16;6.20;99.90
8253;DHT22;61313;48.396;10.008;2022-11-20T04:08:42;6.10;99.90
8253;DHT22;61313;48.396;10.008;2022-11-20T04:11:19;6.10;99.90
8253;DHT22;61313;48.396;10.008;2022-11-20T04:13:53;6.00;99.90
8253;DHT22;61313;48.396;10.008;2022-11-20T04:16:20;6.00;1.00
8253;DHT22;61313;48.396;10.008;2022-11-20T04:18:46;5.90;1.00
8253;DHT22;61313;48.396;10.008;2022-11-20T04:21:12;5.90;1.00
8253;DHT22;61313;48.396;10.008;2022-11-20T04:23:38;5.90;5.80
8253;DHT22;61313;48.396;10.008;2022-11-20T04:26:11;5.90;1.00
8253;DHT22;61313;48.396;10.008;2022-11-20T04:28:37;5.90;99.90
8253;DHT22;61313;48.396;10.008;2022-11-20T04:33:34;6.00;23.70
8253;DHT22;61313;48.396;10.008;2022-11-20T04:36:10;6.00;27.20
8253;DHT22;61313;48.396;10.008;2022-11-20T04:38:36;6.10;1.00
8253;DHT22;61313;48.396;10.008;2022-11-20T04:41:04;6.10;15.30
8253;DHT22;61313;48.396;10.008;2022-11-20T04:43:30;6.10;1.00
8253;DHT22;61313;48.396;10.008;2022-11-20T04:45:57;6.10;1.00
8253;DHT22;61313;48.396;10.008;2022-11-20T04:48:24;6.20;1.00
8253;DHT22;61313;48.396;10.008;2022-11-20T04:50:50;6.20;1.00
8253;DHT22;61313;48.396;10.008;2022-11-20T04:53:16;6.20;1.00
8253;DHT22;61313;48.396;10.008;2022-11-20T04:55:42;6.30;99.90
8253;DHT22;61313;48.396;10.008;2022-11-20T04:58:08;6.20;99.90
8253;DHT22;61313;48.396;10.008;2022-11-20T05:00:33;6.20;99.90
8253;DHT22;61313;48.396;10.008;2022-11-20T05:02:59;6.20;99.90
8253;DHT22;61313;48.396;10.008;2022-11-20T05:05:25;6.20;99.90
8253;DHT22;61313;48.396;10.008;2022-11-20T05:07:50;6.20;99.90
8253;DHT22;61313;48.396;10.008;2022-11-20T05:10:16;6.30;99.90
8253;DHT22;61313;48.396;10.008;2022-11-20T05:12:42;6.30;99.90
8253;DHT22;61313;48.396;10.008;2022-11-20T05:15:08;6.30;99.90
8253;DHT22;61313;48.396;10.008;2022-11-20T05:17:34;6.20;99.90
8253;DHT22;61313;48.396;10.008;2022-11-20T05:19:59;6.20;99.90
8253;DHT22;61313;48.396;10.008;2022-11-20T05:22:25;6.20;99.90
8253;DHT22;61313;48.396;10.008;2022-11-20T05:24:51;6.20;99.90
8253;DHT22;61313;48.396;10.008;2022-11-20T05:27:17;6.20;99.90
8253;DHT22;61313;48.396;10.008;2022-11-20T05:29:42;6.10;99.90
8253;DHT22;61313;48.396;10.008;2022-11-20T05:32:08;6.10;99.90
8253;DHT22;61313;48.396;10.008;2022-11-20T05:34:35;6.10;99.90
8253;DHT22;61313;48.396;10.008;2022-11-20T05:37:01;6.10;99.90
8253;DHT22;61313;48.396;10.008;2022-11-20T05:39:27;6.00;1.00
8253;DHT22;61313;48.396;10.008;2022-11-20T05:41:53;6.00;1.00
8253;DHT22;61313;48.396;10.008;2022-11-20T05:44:39;6.10;1.00
8253;DHT22;61313;48.396;10.008;2022-11-20T05:47:05;6.10;1.00
8253;DHT22;61313;48.396;10.008;2022-11-20T05:49:32;6.10;99.90
8253;DHT22;61313;48.396;10.008;2022-11-20T05:51:57;6.10;99.90
8253;DHT22;61313;48.396;10.008;2022-11-20T05:54:23;6.10;99.90
8253;DHT22;61313;48.396;10.008;2022-11-20T05:56:49;6.10;1.00
8253;DHT22;61313;48.396;10.008;2022-11-20T05:59:14;6.20;99.90
8253;DHT22;61313;48.396;10.008;2022-11-20T06:01:40;6.10;1.00
8253;DHT22;61313;48.396;10.008;2022-11-20T06:04:06;6.30;99.90
8253;DHT22;61313;48.396;10.008;2022-11-20T06:06:32;6.30;99.90
8253;DHT22;61313;48.396;10.008;2022-11-20T06:08:57;6.30;99.90
8253;DHT22;61313;48.396;10.008;2022-11-20T06:11:25;6.30;99.90
8253;DHT22;61313;48.396;10.008;2022-11-20T06:13:51;6.20;1.00
8253;DHT22;61313;48.396;10.008;2022-11-20T06:16:19;6.20;1.00
8253;DHT22;61313;48.396;10.008;2022-11-20T06:18:46;6.20;1.00
8253;DHT22;61313;48.396;10.008;2022-11-20T06:21:19;6.30;1.00
8253;DHT22;61313;48.396;10.008;2022-11-20T06:23:46;6.20;1.00
8253;DHT22;61313;48.396;10.008;2022-11-20T06:26:20;6.30;1.00
8253;DHT22;61313;48.396;10.008;2022-11-20T06:28:47;6.30;1.00
8253;DHT22;61313;48.396;10.008;2022-11-20T06:31:14;6.20;1.10
8253;DHT22;61313;48.396;10.008;2022-11-20T06:33:41;6.20;99.90
8253;DHT22;61313;48.396;10.008;2022-11-20T06:36:07;6.20;99.90
8253;DHT22;61313;48.396;10.008;2022-11-20T06:38:33;6.30;99.90
8253;DHT22;61313;48.396;10.008;2022-11-20T06:40:58;6.30;49.70
8253;DHT22;61313;48.396;10.008;2022-11-20T06:43:24;6.40;1.00
8253;DHT22;61313;48.396;10.008;2022-11-20T06:45:54;6.40;1.00
8253;DHT22;61313;48.396;10.008;2022-11-20T06:48:21;6.30;1.00
8253;DHT22;61313;48.396;10.008;2022-11-20T06:50:47;6.40;99.90
8253;DHT22;61313;48.396;10.008;2022-11-20T06:53:13;6.40;1.00
8253;DHT22;61313;48.396;10.008;2022-11-20T06:55:43;6.50;99.90
8253;DHT22;61313;48.396;10.008;2022-11-20T06:58:09;6.50;1.00
8253;DHT22;61313;48.396;10.008;2022-11-20T07:00:35;6.50;1.00
8253;DHT22;61313;48.396;10.008;2022-11-20T07:03:05;6.70;1.00
8253;DHT22;61313;48.396;10.008;2022-11-20T07:05:31;6.90;1.00
8253;DHT22;61313;48.396;10.008;2022-11-20T07:07:57;7.00;1.00
8253;DHT22;61313;48.396;10.008;2022-11-20T07:10:23;6.90;99.90
8253;DHT22;61313;48.396;10.008;2022-11-20T07:12:52;6.80;1.00
8253;DHT22;61313;48.396;10.008;2022-11-20T07:15:23;6.70;1.00
8253;DHT22;61313;48.396;10.008;2022-11-20T07:17:49;6.70;1.00
8253;DHT22;61313;48.396;10.008;2022-11-20T07:20:15;6.80;1.00
8253;DHT22;61313;48.396;10.008;2022-11-20T07:22:41;6.70;1.00
8253;DHT22;61313;48.396;10.008;2022-11-20T07:25:07;6.70;1.00
8253;DHT22;61313;48.396;10.008;2022-11-20T07:27:34;6.70;1.00
8253;DHT22;61313;48.396;10.008;2022-11-20T07:30:00;6.80;1.00
8253;DHT22;61313;48.396;10.008;2022-11-20T07:32:26;6.70;1.00
8253;DHT22;61313;48.396;10.008;2022-11-20T07:34:51;6.80;1.00
8253;DHT22;61313;48.396;10.008;2022-11-20T07:37:17;6.90;1.00
8253;DHT22;61313;48.396;10.008;2022-11-20T07:39:43;7.10;99.90
8253;DHT22;61313;48.396;10.008;2022-11-20T07:42:09;6.90;99.90
8253;DHT22;61313;48.396;10.008;2022-11-20T07:44:35;7.00;99.90
8253;DHT22;61313;48.396;10.008;2022-11-20T07:47:01;6.90;99.90
8253;DHT22;61313;48.396;10.008;2022-11-20T07:49:27;7.00;99.90
8253;DHT22;61313;48.396;10.008;2022-11-20T07:51:53;7.00;99.90
8253;DHT22;61313;48.396;10.008;2022-11-20T07:54:20;7.00;99.90
8253;DHT22;61313;48.396;10.008;2022-11-20T07:56:46;7.00;99.90
8253;DHT22;61313;48.396;10.008;2022-11-20T07:59:12;7.00;99.90
8253;DHT22;61313;48.396;10.008;2022-11-20T08:01:41;7.20;99.90
8253;DHT22;61313;48.396;10.008;2022-11-20T08:04:07;7.30;99.90
8253;DHT22;61313;48.396;10.008;2022-11-20T08:06:33;7.30;44.30
8253;DHT22;61313;48.396;10.008;2022-11-20T08:08:59;7.30;4.30
8253;DHT22;61313;48.396;10.008;2022-11-20T08:11:25;7.20;73.40
8253;DHT22;61313;48.396;10.008;2022-11-20T08:14:09;7.30;94.70
8253;DHT22;61313;48.396;10.008;2022-11-20T08:16:42;7.10;99.90
8253;DHT22;61313;48.396;10.008;2022-11-20T08:19:08;7.10;99.90
8253;DHT22;61313;48.396;10.008;2022-11-20T08:21:34;7.10;99.90
8253;DHT22;61313;48.396;10.008;2022-11-20T08:24:00;7.00;99.90
8253;DHT22;61313;48.396;10.008;2022-11-20T08:26:26;7.00;99.90
8253;DHT22;61313;48.396;10.008;2022-11-20T08:28:56;6.90;1.00
8253;DHT22;61313;48.396;10.008;2022-11-20T08:31:23;7.00;1.00
8253;DHT22;61313;48.396;10.008;2022-11-20T08:33:49;7.10;99.90
8253;DHT22;61313;48.396;10.008;2022-11-20T08:36:15;7.20;99.90
8253;DHT22;61313;48.396;10.008;2022-11-20T08:38:41;7.10;99.90
8253;DHT22;61313;48.396;10.008;2022-11-20T08:41:07;7.20;99.90
8253;DHT22;61313;48.396;10.008;2022-11-20T08:44:02;7.30;99.90
8253;DHT22;61313;48.396;10.008;2022-11-20T08:46:38;7.20;99.90
8253;DHT22;61313;48.396;10.008;2022-11-20T08:49:06;7.20;99.90
8253;DHT22;61313;48.396;10.008;2022-11-20T08:51:32;7.20;99.90
8253;DHT22;61313;48.396;10.008;2022-11-20T08:53:58;7.20;99.90
8253;DHT22;61313;48.396;10.008;2022-11-20T08:56:23;7.30;99.90
8253;DHT22;61313;48.396;10.008;2022-11-20T08:58:50;7.30;99.90
8253;DHT22;61313;48.396;10.008;2022-11-20T09:01:21;7.20;99.90
8253;DHT22;61313;48.396;10.008;2022-11-20T09:03:47;7.20;99.90
8253;DHT22;61313;48.396;10.008;2022-11-20T09:06:13;7.30;99.90
8253;DHT22;61313;48.396;10.008;2022-11-20T09:08:39;7.40;99.90
8253;DHT22;61313;48.396;10.008;2022-11-20T09:11:05;7.40;99.90
8253;DHT22;61313;48.396;10.008;2022-11-20T09:13:32;7.30;99.90
8253;DHT22;61313;48.396;10.008;2022-11-20T09:16:01;7.40;99.90
8253;DHT22;61313;48.396;10.008;2022-11-20T09:18:27;7.40;99.90
8253;DHT22;61313;48.396;10.008;2022-11-20T09:21:00;7.40;99.90
8253;DHT22;61313;48.396;10.008;2022-11-20T09:23:27;7.50;99.90
8253;DHT22;61313;48.396;10.008;2022-11-20T09:25:53;7.30;99.90
8253;DHT22;61313;48.396;10.008;2022-11-20T09:28:21;7.40;99.90
8253;DHT22;61313;48.396;10.008;2022-11-20T09:30:47;7.40;99.90
8253;DHT22;61313;48.396;10.008;2022-11-20T09:33:12;7.30;99.90
8253;DHT22;61313;48.396;10.008;2022-11-20T09:35:38;7.40;99.90
8253;DHT22;61313;48.396;10.008;2022-11-20T09:38:05;7.30;99.90
8253;DHT22;61313;48.396;10.008;2022-11-20T09:40:31;7.50;99.90
8253;DHT22;61313;48.396;10.008;2022-11-20T09:46:06;7.60;1.00
8253;DHT22;61313;48.396;10.008;2022-11-20T09:54:20;7.50;99.90
8253;DHT22;61313;48.396;10.008;2022-11-20T09:57:10;7.50;99.90
8253;DHT22;61313;48.396;10.008;2022-11-20T09:59:40;7.50;99.90
8253;DHT22;61313;48.396;10.008;2022-11-20T10:02:45;7.60;99.90
8253;DHT22;61313;48.396;10.008;2022-11-20T10:07:52;7.60;99.90
8253;DHT22;61313;48.396;10.008;2022-11-20T10:10:40;7.70;25.00
8253;DHT22;61313;48.396;10.008;2022-11-20T10:25:04;7.70;1.00
8253;DHT22;61313;48.396;10.008;2022-11-20T10:27:50;7.80;1.00
8253;DHT22;61313;48.396;10.008;2022-11-20T10:30:20;7.80;1.00
8253;DHT22;61313;48.396;10.008;2022-11-20T10:33:03;7.90;1.00
8253;DHT22;61313;48.396;10.008;2022-11-20T10:35:39;7.90;1.00
8253;DHT22;61313;48.396;10.008;2022-11-20T10:38:15;8.00;1.00
8253;DHT22;61313;48.396;10.008;2022-11-20T10:40:45;8.00;1.00
8253;DHT22;61313;48.396;10.008;2022-11-20T10:43:19;7.90;1.00
8253;DHT22;61313;48.396;10.008;2022-11-20T10:46:00;8.00;1.00
8253;DHT22;61313;48.396;10.008;2022-11-20T10:48:28;8.00;1.00
8253;DHT22;61313;48.396;10.008;2022-11-20T10:51:18;8.00;1.00
8253;DHT22;61313;48.396;10.008;2022-11-20T10:56:44;8.00;1.00
8253;DHT22;61313;48.396;10.008;2022-11-20T10:59:38;8.00;1.00
8253;DHT22;61313;48.396;10.008;2022-11-20T11:02:21;8.10;91.10
8253;DHT22;61313;48.396;10.008;2022-11-20T11:04:52;8.00;1.00
8253;DHT22;61313;48.396;10.008;2022-11-20T11:07:39;8.00;1.00
8253;DHT22;61313;48.396;10.008;2022-11-20T11:10:17;7.90;1.00
8253;DHT22;61313;48.396;10.008;2022-11-20T11:12:46;7.90;1.00
8253;DHT22;61313;48.396;10.008;2022-11-20T11:15:37;8.00;1.00
8253;DHT22;61313;48.396;10.008;2022-11-20T11:18:03;8.00;1.00
8253;DHT22;61313;48.396;10.008;2022-11-20T11:20:29;8.00;36.00
8253;DHT22;61313;48.396;10.008;2022-11-20T11:22:59;8.00;99.90
8253;DHT22;61313;48.396;10.008;2022-11-20T11:25:33;8.00;99.90
8253;DHT22;61313;48.396;10.008;2022-11-20T11:28:21;8.00;1.00
8253;DHT22;61313;48.396;10.008;2022-11-20T11:30:47;8.00;99.90
8253;DHT22;61313;48.396;10.008;2022-11-20T11:33:22;8.00;95.40
8253;DHT22;61313;48.396;10.008;2022-11-20T11:36:00;8.00;99.90
8253;DHT22;61313;48.396;10.008;2022-11-20T11:41:01;8.00;99.90
8253;DHT22;61313;48.396;10.008;2022-11-20T11:43:33;8.00;99.90
8253;DHT22;61313;48.396;10.008;2022-11-20T11:46:25;8.10;1.00
8253;DHT22;61313;48.396;10.008;2022-11-20T11:49:18;8.10;99.90
8253;DHT22;61313;48.396;10.008;2022-11-20T11:52:24;8.20;99.90
8253;DHT22;61313;48.396;10.008;2022-11-20T11:54:57;8.20;99.90
8253;DHT22;61313;48.396;10.008;2022-11-20T11:57:41;8.30;1.00
8253;DHT22;61313;48.396;10.008;2022-11-20T12:08:38;8.20;99.90
8253;DHT22;61313;48.396;10.008;2022-11-20T12:11:32;8.20;1.00
8253;DHT22;61313;48.396;10.008;2022-11-20T12:14:09;8.30;1.00
8253;DHT22;61313;48.396;10.008;2022-11-20T12:16:38;8.30;1.00
8253;DHT22;61313;48.396;10.008;2022-11-20T12:19:10;8.30;1.00
8253;DHT22;61313;48.396;10.008;2022-11-20T12:25:03;8.40;99.90
8253;DHT22;61313;48.396;10.008;2022-11-20T12:30:21;8.50;1.00
8253;DHT22;61313;48.396;10.008;2022-11-20T12:33:22;8.60;1.00
8253;DHT22;61313;48.396;10.008;2022-11-20T12:36:01;8.50;1.00
8253;DHT22;61313;48.396;10.008;2022-11-20T12:52:41;8.50;99.90
8253;DHT22;61313;48.396;10.008;2022-11-20T12:55:21;8.60;1.00
8253;DHT22;61313;48.396;10.008;2022-11-20T13:00:22;8.70;1.00
8253;DHT22;61313;48.396;10.008;2022-11-20T13:05:50;8.80;1.00
8253;DHT22;61313;48.396;10.008;2022-11-20T13:08:30;9.00;99.90
8253;DHT22;61313;48.396;10.008;2022-11-20T13:11:09;9.30;1.00
8253;DHT22;61313;48.396;10.008;2022-11-20T13:14:04;9.40;99.90
8253;DHT22;61313;48.396;10.008;2022-11-20T13:19:15;9.50;99.90
8253;DHT22;61313;48.396;10.008;2022-11-20T13:21:44;9.60;93.00
8253;DHT22;61313;48.396;10.008;2022-11-20T13:29:42;9.50;1.00
8253;DHT22;61313;48.396;10.008;2022-11-20T13:32:17;9.40;1.00
8253;DHT22;61313;48.396;10.008;2022-11-20T13:35:00;9.40;1.00
8253;DHT22;61313;48.396;10.008;2022-11-20T13:37:33;9.30;1.00
8253;DHT22;61313;48.396;10.008;2022-11-20T13:40:26;9.40;1.00
8253;DHT22;61313;48.396;10.008;2022-11-20T13:45:24;9.20;1.00
8253;DHT22;61313;48.396;10.008;2022-11-20T13:47:51;9.20;1.00
8253;DHT22;61313;48.396;10.008;2022-11-20T13:50:17;9.20;1.00
8253;DHT22;61313;48.396;10.008;2022-11-20T14:03:44;9.10;1.00
8253;DHT22;61313;48.396;10.008;2022-11-20T14:06:31;9.10;1.00
8253;DHT22;61313;48.396;10.008;2022-11-20T14:08:58;9.10;1.00
8253;DHT22;61313;48.396;10.008;2022-11-20T14:11:28;9.00;1.00
8253;DHT22;61313;48.396;10.008;2022-11-20T14:14:05;9.00;1.00
8253;DHT22;61313;48.396;10.008;2022-11-20T14:16:39;9.00;1.00
8253;DHT22;61313;48.396;10.008;2022-11-20T14:19:22;9.10;1.00
8253;DHT22;61313;48.396;10.008;2022-11-20T14:21:53;9.10;1.00
8253;DHT22;61313;48.396;10.008;2022-11-20T14:24:23;9.20;1.00
8253;DHT22;61313;48.396;10.008;2022-11-20T14:26:50;10.30;99.90
8253;DHT22;61313;48.396;10.008;2022-11-20T14:29:22;10.90;1.00
8253;DHT22;61313;48.396;10.008;2022-11-20T14:31:52;11.40;1.00
8253;DHT22;61313;48.396;10.008;2022-11-20T14:34:22;11.00;99.90
8253;DHT22;61313;48.396;10.008;2022-11-20T14:36:55;10.70;1.00
8253;DHT22;61313;48.396;10.008;2022-11-20T14:39:28;10.50;99.90
8253;DHT22;61313;48.396;10.008;2022-11-20T14:41:55;9.90;99.90
8253;DHT22;61313;48.396;10.008;2022-11-20T14:44:27;9.60;99.90
8253;DHT22;61313;48.396;10.008;2022-11-20T14:46:55;9.40;99.90
8253;DHT22;61313;48.396;10.008;2022-11-20T14:49:21;9.30;99.90
8253;DHT22;61313;48.396;10.008;2022-11-20T14:52:01;9.20;99.90
8253;DHT22;61313;48.396;10.008;2022-11-20T14:54:27;9.10;99.90
8253;DHT22;61313;48.396;10.008;2022-11-20T14:57:02;9.10;99.90
8253;DHT22;61313;48.396;10.008;2022-11-20T14:59:33;9.20;99.90
8253;DHT22;61313;48.396;10.008;2022-11-20T15:02:05;9.10;99.90
8253;DHT22;61313;48.396;10.008;2022-11-20T15:04:31;9.20;99.90
8253;DHT22;61313;48.396;10.008;2022-11-20T15:06:58;9.20;99.90
8253;DHT22;61313;48.396;10.008;2022-11-20T15:09:25;9.10;99.90
8253;DHT22;61313;48.396;10.008;2022-11-20T15:12:15;9.00;99.90
8253;DHT22;61313;48.396;10.008;2022-11-20T15:14:42;9.00;99.90
8253;DHT22;61313;48.396;10.008;2022-11-20T15:17:10;8.90;99.90
8253;DHT22;61313;48.396;10.008;2022-11-20T15:19:37;8.90;99.90
8253;DHT22;61313;48.396;10.008;2022-11-20T15:22:03;8.80;99.90
8253;DHT22;61313;48.396;10.008;2022-11-20T15:24:35;8.80;99.90
8253;DHT22;61313;48.396;10.008;2022-11-20T15:27:01;8.90;1.00
8253;DHT22;61313;48.396;10.008;2022-11-20T15:29:26;9.00;99.90
8253;DHT22;61313;48.396;10.008;2022-11-20T15:31:53;8.90;99.90
8253;DHT22;61313;48.396;10.008;2022-11-20T15:34:19;8.90;99.90
8253;DHT22;61313;48.396;10.008;2022-11-20T15:36:45;8.90;1.00
8253;DHT22;61313;48.396;10.008;2022-11-20T15:39:10;8.80;1.00
8253;DHT22;61313;48.396;10.008;2022-11-20T15:41:37;8.70;1.00
8253;DHT22;61313;48.396;10.008;2022-11-20T15:44:04;8.70;1.00
8253;DHT22;61313;48.396;10.008;2022-11-20T15:46:36;8.60;1.00
8253;DHT22;61313;48.396;10.008;2022-11-20T15:49:04;8.50;1.00
8253;DHT22;61313;48.396;10.008;2022-11-20T15:51:34;8.50;1.00
8253;DHT22;61313;48.396;10.008;2022-11-20T15:54:01;8.30;1.00
8253;DHT22;61313;48.396;10.008;2022-11-20T15:56:28;8.30;1.00
8253;DHT22;61313;48.396;10.008;2022-11-20T15:58:54;8.30;1.00
8253;DHT22;61313;48.396;10.008;2022-11-20T16:01:23;8.30;1.00
8253;DHT22;61313;48.396;10.008;2022-11-20T16:03:48;8.20;1.00
8253;DHT22;61313;48.396;10.008;2022-11-20T16:06:14;8.20;1.00
8253;DHT22;61313;48.396;10.008;2022-11-20T16:08:41;8.20;1.00
8253;DHT22;61313;48.396;10.008;2022-11-20T16:11:09;8.20;1.00
8253;DHT22;61313;48.396;10.008;2022-11-20T16:13:35;8.10;1.00
8253;DHT22;61313;48.396;10.008;2022-11-20T16:16:27;8.00;1.00
8253;DHT22;61313;48.396;10.008;2022-11-20T16:18:54;8.10;1.00
8253;DHT22;61313;48.396;10.008;2022-11-20T16:21:20;8.10;1.00
8253;DHT22;61313;48.396;10.008;2022-11-20T16:23:46;8.00;1.00
8253;DHT22;61313;48.396;10.008;2022-11-20T16:26:14;8.00;1.00
8253;DHT22;61313;48.396;10.008;2022-11-20T16:28:41;8.00;1.00
8253;DHT22;61313;48.396;10.008;2022-11-20T16:31:15;7.90;1.00
8253;DHT22;61313;48.396;10.008;2022-11-20T16:33:41;8.00;1.00
8253;DHT22;61313;48.396;10.008;2022-11-20T16:36:12;7.90;1.00
8253;DHT22;61313;48.396;10.008;2022-11-20T16:38:39;7.90;1.00
8253;DHT22;61313;48.396;10.008;2022-11-20T16:41:05;7.90;1.00
8253;DHT22;61313;48.396;10.008;2022-11-20T16:43:31;7.90;1.00
8253;DHT22;61313;48.396;10.008;2022-11-20T16:45:57;7.80;1.00
8253;DHT22;61313;48.396;10.008;2022-11-20T16:48:23;7.80;96.50
8253;DHT22;61313;48.396;10.008;2022-11-20T16:50:51;7.80;99.90
8253;DHT22;61313;48.396;10.008;2022-11-20T16:53:21;7.80;99.90
8253;DHT22;61313;48.396;10.008;2022-11-20T16:55:47;7.80;99.90
8253;DHT22;61313;48.396;10.008;2022-11-20T16:58:14;7.70;99.90
8253;DHT22;61313;48.396;10.008;2022-11-20T17:00:40;7.70;99.90
8253;DHT22;61313;48.396;10.008;2022-11-20T17:03:06;7.80;99.90
8253;DHT22;61313;48.396;10.008;2022-11-20T17:05:33;7.80;99.90
8253;DHT22;61313;48.396;10.008;2022-11-20T17:08:00;8.30;1.00
8253;DHT22;61313;48.396;10.008;2022-11-20T17:10:26;8.60;99.90
8253;DHT22;61313;48.396;10.008;2022-11-20T17:12:51;8.40;99.90
8253;DHT22;61313;48.396;10.008;2022-11-20T17:15:17;8.00;99.90
8253;DHT22;61313;48.396;10.008;2022-11-20T17:17:43;7.90;1.00
8253;DHT22;61313;48.396;10.008;2022-11-20T17:20:09;7.80;1.00
8253;DHT22;61313;48.396;10.008;2022-11-20T17:22:36;7.70;1.00
8253;DHT22;61313;48.396;10.008;2022-11-20T17:25:02;7.60;1.00
8253;DHT22;61313;48.396;10.008;2022-11-20T17:27:28;7.60;1.00
8253;DHT22;61313;48.396;10.008;2022-11-20T17:29:54;7.60;1.00
8253;DHT22;61313;48.396;10.008;2022-11-20T17:32:21;7.60;1.00
8253;DHT22;61313;48.396;10.008;2022-11-20T17:34:47;7.50;1.00
8253;DHT22;61313;48.396;10.008;2022-11-20T17:37:12;7.60;1.00
8253;DHT22;61313;48.396;10.008;2022-11-20T17:39:38;7.50;1.00
8253;DHT22;61313;48.396;10.008;2022-11-20T17:42:04;7.50;1.00
8253;DHT22;61313;48.396;10.008;2022-11-20T17:44:48;7.50;1.00